sensor_id;sensor_type;location;lat;lon;timestamp;temperature;humidity
20418;DHT22;10368;51.436;6.774;2023-03-01T02:00:25;3.70;90.40
20418;DHT22;10368;51.436;6.774;2023-03-01T02:03:04;0.80;99.90
20418;DHT22;10368;51.436;6.774;2023-03-01T02:05:46;0.70;99.90
20418;DHT22;10368;51.436;6.774;2023-03-01T02:08:22;0.80;99.90
20418;DHT22;10368;51.436;6.774;2023-03-01T02:10:50;0.80;99.90
20418;DHT22;10368;51.436;6.774;2023-03-01T02:13:18;0.80;99.90
20418;DHT22;10368;51.436;6.774;2023-03-01T02:15:45;0.70;99.90
20418;DHT22;10368;51.436;6.774;2023-03-01T02:18:16;0.80;99.90
20418;DHT22;10368;51.436;6.774;2023-03-01T02:23:33;0.70;99.90
20418;DHT22;10368;51.436;6.774;2023-03-01T02:26:11;0.60;99.90
20418;DHT22;10368;51.436;6.774;2023-03-01T02:28:42;0.70;99.90
20418;DHT22;10368;51.436;6.774;2023-03-01T02:31:11;0.70;99.90
20418;DHT22;10368;51.436;6.774;2023-03-01T02:34:03;0.70;99.90
20418;DHT22;10368;51.436;6.774;2023-03-01T02:36:56;0.70;99.90
20418;DHT22;10368;51.436;6.774;2023-03-01T05:35:51;0.60;99.90
20418;DHT22;10368;51.436;6.774;2023-03-01T05:38:20;-0.30;99.90
20418;DHT22;10368;51.436;6.774;2023-03-01T05:40:48;-0.40;99.90
20418;DHT22;10368;51.436;6.774;2023-03-01T05:43:16;-0.30;99.90
20418;DHT22;10368;51.436;6.774;2023-03-01T05:45:44;-0.30;99.90
20418;DHT22;10368;51.436;6.774;2023-03-01T05:48:12;-0.30;99.90
20418;DHT22;10368;51.436;6.774;2023-03-01T05:50:43;-0.40;99.90
20418;DHT22;10368;51.436;6.774;2023-03-01T05:53:19;-0.40;99.90
20418;DHT22;10368;51.436;6.774;2023-03-01T05:55:49;-0.40;99.90
20418;DHT22;10368;51.436;6.774;2023-03-01T05:58:19;-0.40;99.90
20418;DHT22;10368;51.436;6.774;2023-03-01T06:00:47;-0.40;99.90
20418;DHT22;10368;51.436;6.774;2023-03-01T06:03:16;-0.40;99.90
20418;DHT22;10368;51.436;6.774;2023-03-01T06:05:44;-0.40;99.90
20418;DHT22;10368;51.436;6.774;2023-03-01T06:08:12;-0.40;99.90
20418;DHT22;10368;51.436;6.774;2023-03-01T06:10:39;-0.30;99.90
20418;DHT22;10368;51.436;6.774;2023-03-01T06:13:07;-0.30;99.90
20418;DHT22;10368;51.436;6.774;2023-03-01T06:15:34;-0.30;99.90
20418;DHT22;10368;51.436;6.774;2023-03-01T06:18:01;-0.50;99.90
20418;DHT22;10368;51.436;6.774;2023-03-01T06:20:28;-0.40;99.90
20418;DHT22;10368;51.436;6.774;2023-03-01T06:42:42;-0.40;99.90
20418;DHT22;10368;51.436;6.774;2023-03-01T06:45:10;-0.60;99.90
20418;DHT22;10368;51.436;6.774;2023-03-01T06:47:36;-0.60;99.90
20418;DHT22;10368;51.436;6.774;2023-03-01T06:50:04;-0.50;99.90
20418;DHT22;10368;51.436;6.774;2023-03-01T06:52:31;-0.40;99.90
20418;DHT22;10368;51.436;6.774;2023-03-01T06:54:58;-0.50;99.90
20418;DHT22;10368;51.436;6.774;2023-03-01T06:57:25;-0.30;99.90
20418;DHT22;10368;51.436;6.774;2023-03-01T06:59:52;-0.40;99.90
20418;DHT22;10368;51.436;6.774;2023-03-01T07:02:19;-0.40;99.90
20418;DHT22;10368;51.436;6.774;2023-03-01T07:04:46;-0.40;99.90
20418;DHT22;10368;51.436;6.774;2023-03-01T07:07:13;-0.50;99.90
20418;DHT22;10368;51.436;6.774;2023-03-01T07:09:39;-0.40;99.90
20418;DHT22;10368;51.436;6.774;2023-03-01T07:12:06;-0.30;99.90
20418;DHT22;10368;51.436;6.774;2023-03-01T07:14:34;-0.30;99.90
20418;DHT22;10368;51.436;6.774;2023-03-01T07:17:01;-0.40;99.90
20418;DHT22;10368;51.436;6.774;2023-03-01T07:19:28;-0.30;99.90
20418;DHT22;10368;51.436;6.774;2023-03-01T07:21:55;-0.30;99.90
20418;DHT22;10368;51.436;6.774;2023-03-01T07:24:22;-0.20;99.90
20418;DHT22;10368;51.436;6.774;2023-03-01T07:26:50;-0.20;99.90
20418;DHT22;10368;51.436;6.774;2023-03-01T07:29:17;-0.20;99.90
20418;DHT22;10368;51.436;6.774;2023-03-01T10:16:46;3.10;99.90
20418;DHT22;10368;51.436;6.774;2023-03-01T10:19:33;3.20;99.90
20418;DHT22;10368;51.436;6.774;2023-03-01T10:22:11;3.40;99.50
20418;DHT22;10368;51.436;6.774;2023-03-01T10:24:39;3.40;98.80
20418;DHT22;10368;51.436;6.774;2023-03-01T10:30:21;3.50;98.40
20418;DHT22;10368;51.436;6.774;2023-03-01T10:48:34;3.60;97.80
20418;DHT22;10368;51.436;6.774;2023-03-01T11:03:29;4.30;95.60
20418;DHT22;10368;51.436;6.774;2023-03-01T11:16:31;6.00;87.20
20418;DHT22;10368;51.436;6.774;2023-03-01T11:21:28;6.30;87.10
20418;DHT22;10368;51.436;6.774;2023-03-01T11:29:00;6.80;81.90
20418;DHT22;10368;51.436;6.774;2023-03-01T11:31:28;8.40;75.30
20418;DHT22;10368;51.436;6.774;2023-03-01T11:34:13;8.10;75.90
20418;DHT22;10368;51.436;6.774;2023-03-01T11:36:54;8.00;72.70
20418;DHT22;10368;51.436;6.774;2023-03-01T11:39:58;8.90;73.30
20418;DHT22;10368;51.436;6.774;2023-03-01T11:45:10;9.00;69.10
20418;DHT22;10368;51.436;6.774;2023-03-01T11:50:44;8.70;67.70
20418;DHT22;10368;51.436;6.774;2023-03-01T11:56:38;8.70;68.90
20418;DHT22;10368;51.436;6.774;2023-03-01T11:59:35;9.60;67.50
20418;DHT22;10368;51.436;6.774;2023-03-01T12:05:16;9.90;66.20
20418;DHT22;10368;51.436;6.774;2023-03-01T12:13:45;9.60;63.60
20418;DHT22;10368;51.436;6.774;2023-03-01T12:16:33;10.80;63.10
20418;DHT22;10368;51.436;6.774;2023-03-01T12:27:55;9.90;60.20
20418;DHT22;10368;51.436;6.774;2023-03-01T12:34:11;10.50;60.30
20418;DHT22;10368;51.436;6.774;2023-03-01T12:52:52;10.90;60.50
20418;DHT22;10368;51.436;6.774;2023-03-01T13:01:18;12.30;56.70
20418;DHT22;10368;51.436;6.774;2023-03-01T13:11:42;13.20;55.90
20418;DHT22;10368;51.436;6.774;2023-03-01T13:16:53;12.00;57.50
20418;DHT22;10368;51.436;6.774;2023-03-01T13:19:21;11.50;56.30
20418;DHT22;10368;51.436;6.774;2023-03-01T13:21:49;12.20;56.70
20418;DHT22;10368;51.436;6.774;2023-03-01T13:24:39;11.80;56.30
20418;DHT22;10368;51.436;6.774;2023-03-01T13:29:55;11.00;57.30
20418;DHT22;10368;51.436;6.774;2023-03-01T13:32:26;11.50;56.40
20418;DHT22;10368;51.436;6.774;2023-03-01T13:37:44;11.90;56.30
20418;DHT22;10368;51.436;6.774;2023-03-01T13:42:48;11.80;55.50
20418;DHT22;10368;51.436;6.774;2023-03-01T13:45:39;12.00;55.30
20418;DHT22;10368;51.436;6.774;2023-03-01T13:48:15;12.10;54.60
20418;DHT22;10368;51.436;6.774;2023-03-01T13:51:23;11.50;54.70
20418;DHT22;10368;51.436;6.774;2023-03-01T13:53:44;11.90;55.20
20418;DHT22;10368;51.436;6.774;2023-03-01T13:56:21;11.20;55.60
20418;DHT22;10368;51.436;6.774;2023-03-01T13:59:01;11.70;54.70
20418;DHT22;10368;51.436;6.774;2023-03-01T14:01:34;11.70;54.80
20418;DHT22;10368;51.436;6.774;2023-03-01T14:04:14;11.50;56.40
20418;DHT22;10368;51.436;6.774;2023-03-01T14:06:45;12.50;53.70
20418;DHT22;10368;51.436;6.774;2023-03-01T14:17:34;11.40;56.90
20418;DHT22;10368;51.436;6.774;2023-03-01T14:22:44;11.40;56.20
20418;DHT22;10368;51.436;6.774;2023-03-01T14:25:27;11.70;56.40
20418;DHT22;10368;51.436;6.774;2023-03-01T14:30:38;11.30;56.00
20418;DHT22;10368;51.436;6.774;2023-03-01T14:38:38;12.10;54.20
20418;DHT22;10368;51.436;6.774;2023-03-01T14:41:10;11.90;55.20
20418;DHT22;10368;51.436;6.774;2023-03-01T14:43:43;11.10;57.10
20418;DHT22;10368;51.436;6.774;2023-03-01T14:49:07;12.10;54.80
20418;DHT22;10368;51.436;6.774;2023-03-01T14:51:38;12.00;54.90
20418;DHT22;10368;51.436;6.774;2023-03-01T14:57:00;10.90;56.50
20418;DHT22;10368;51.436;6.774;2023-03-01T14:59:28;11.20;57.60
20418;DHT22;10368;51.436;6.774;2023-03-01T15:01:57;10.70;57.30
20418;DHT22;10368;51.436;6.774;2023-03-01T15:04:25;10.70;57.90
20418;DHT22;10368;51.436;6.774;2023-03-01T15:06:54;10.60;58.60
20418;DHT22;10368;51.436;6.774;2023-03-01T15:09:22;10.10;59.80
20418;DHT22;10368;51.436;6.774;2023-03-01T15:11:49;10.20;59.60
20418;DHT22;10368;51.436;6.774;2023-03-01T15:14:41;10.40;59.60
20418;DHT22;10368;51.436;6.774;2023-03-01T15:17:30;10.00;60.70
20418;DHT22;10368;51.436;6.774;2023-03-01T15:19:58;10.20;62.00
20418;DHT22;10368;51.436;6.774;2023-03-01T15:22:26;10.00;60.80
20418;DHT22;10368;51.436;6.774;2023-03-01T15:24:54;10.20;61.90
20418;DHT22;10368;51.436;6.774;2023-03-01T15:27:25;10.00;60.80
20418;DHT22;10368;51.436;6.774;2023-03-01T15:29:57;9.80;61.80
20418;DHT22;10368;51.436;6.774;2023-03-01T15:34:57;10.00;61.90
20418;DHT22;10368;51.436;6.774;2023-03-01T19:38:30;4.80;81.30
20418;DHT22;10368;51.436;6.774;2023-03-01T19:40:57;4.60;82.80
20418;DHT22;10368;51.436;6.774;2023-03-01T19:43:23;4.60;82.60
20418;DHT22;10368;51.436;6.774;2023-03-01T19:45:52;4.60;83.20
20418;DHT22;10368;51.436;6.774;2023-03-01T19:48:19;4.50;83.20
20418;DHT22;10368;51.436;6.774;2023-03-01T19:53:14;4.50;83.20
